• Join FlightAware (Why Join?)
  • Login
  • US Flag 
Trick or treat! (Boo!!) 
03:04AM EDT


 

Airport Tracker/Info


-or-


 

Live Flight TrackerFlight Track Log ✈ AAL2007 ✈ 18-Jun-2013 ✈ KORD - KAUS

Flight Track Log - Related Links

Times and Time Zones

All times are in EDT time to prevent confusion due to time zone crossing. See the AAL2007 flight status page for this flight to view local times or setup timezone preferences in your user account.

Time Position Orientation Groundspeed Altitude Reporting Facility
EDT Latitude Longitude Course Direction KTS MPH feet Rate Location/Type
06:51PM 41.9667 -87.8500 207° Southwest 200 230 2,800  Level Chicago TRACON
06:52PM 41.9294 -87.8144 145° Southeast 217 250 3,900 1,260 Climbing Chicago Center
06:53PM 41.7161 -88.1726 201° Southwest  Level Estimated
06:53PM 41.8597 -87.7836 162° South 256 295 5,000  Level Chicago Center
06:54PM 41.6274 -88.2607 197° South  Level Estimated
06:54PM 41.7811 -87.7767 176° South 274 315 6,600  Level Chicago Center
06:55PM 41.5259 -88.2027 157° South  Level FlightAware Approximate
06:55PM 41.7167 -87.8303 212° Southwest 287 330 9,500  Level Chicago Center
06:56PM 41.4376 -88.2913 207° Southwest  Level Estimated
06:56PM 41.6422 -87.9125 220° Southwest 291 335 12,500  Level Chicago Center
06:57PM 41.5778 -87.9858 220° Southwest 304 350 15,100 1,800 Climbing Chicago Center
06:58PM 41.5097 -88.0608 220° Southwest 319 367 16,300 1,620 Climbing Chicago Center
06:59PM 41.4208 -88.1583 219° Southwest 358 412 18,500 1,920 Climbing Chicago Center
07:00PM 41.3264 -88.2175 205° Southwest 391 450 20,300 1,680 Climbing Chicago Center
07:01PM 41.2233 -88.2628 198° South 395 455 22,000 1,500 Climbing Chicago Center
07:02PM 41.1172 -88.3111 199° South 405 466 23,500 1,500 Climbing Chicago Center
07:03PM 41.0081 -88.3603 199° South 415 478 25,100 1,740 Climbing Chicago Center
07:04PM 40.8764 -88.4178 198° South 416 479 27,100 1,440 Climbing Chicago Center
07:05PM 40.7694 -88.4750 202° Southwest 417 480 28,100 1,200 Climbing Chicago Center
07:06PM 40.6864 -88.5800 224° Southwest 410 472 29,600 1,200 Climbing Chicago Center
07:07PM 40.5978 -88.6756 219° Southwest 412 474 30,600 1,020 Climbing Chicago Center
07:08PM 40.5086 -88.7694 219° Southwest 412 474 31,800 1,080 Climbing Chicago Center
07:10PM 40.4150 -88.8681 219° Southwest 412 474 32,900 1,020 Climbing Chicago Center
07:11PM 40.3278 -88.9622 219° Southwest 406 467 34,000 480 Climbing Chicago Center
07:12PM 40.2219 -89.0728 219° Southwest 402 463 34,000  Level Chicago Center
07:13PM 40.1325 -89.1672 219° Southwest 409 471 34,000  Level Chicago Center
07:13PM 40.0608 -89.2453 220° Southwest 409 471 34,000  Level Kansas City Center
07:14PM 39.9708 -89.3400 219° Southwest 412 474 34,000  Level Kansas City Center
07:15PM 39.8817 -89.4339 219° Southwest 412 474 34,000  Level Kansas City Center
07:17PM 39.7914 -89.5278 219° Southwest 413 475 34,000  Level Kansas City Center
07:18PM 39.7042 -89.6183 219° Southwest 411 473 34,000  Level Kansas City Center
07:19PM 39.5969 -89.7289 218° Southwest 411 473 34,000  Level Kansas City Center
07:20PM 39.5089 -89.8214 219° Southwest 409 471 34,000  Level Kansas City Center
07:21PM 39.4203 -89.9131 219° Southwest 408 470 34,000  Level Kansas City Center
07:22PM 39.3308 -90.0044 218° Southwest 410 472 34,000  Level Kansas City Center
07:23PM 39.2422 -90.0956 219° Southwest 410 472 34,000  Level Kansas City Center
07:24PM 39.1539 -90.1861 218° Southwest 407 468 34,000 -300 Level Kansas City Center
07:25PM 39.0472 -90.2944 218° Southwest 408 470 33,500 -720 Descending Kansas City Center
07:26PM 38.9589 -90.3858 219° Southwest 410 472 32,600 -780 Descending Kansas City Center
07:27PM 38.8706 -90.4769 219° Southwest 413 475 32,000 -300 Descending Kansas City Center
07:28PM 38.7800 -90.5722 219° Southwest 416 479 32,000  Level Kansas City Center
07:29PM 38.6803 -90.6914 223° Southwest 422 486 32,000  Level Kansas City Center
07:30PM 38.5953 -90.7886 222° Southwest 417 480 32,000  Level Kansas City Center
07:31PM 38.5097 -90.8881 222° Southwest 418 481 32,000  Level Kansas City Center
07:32PM 38.4264 -90.9831 222° Southwest 413 475 32,000  Level Kansas City Center
07:33PM 38.3419 -91.0789 222° Southwest 411 473 32,000  Level Kansas City Center
07:34PM 38.2567 -91.1744 221° Southwest 410 472 32,000  Level Kansas City Center
07:35PM 38.1619 -91.2817 222° Southwest 417 480 32,000  Level Kansas City Center
07:36PM 38.0739 -91.3806 221° Southwest 421 484 32,000  Level Kansas City Center
07:37PM 37.9683 -91.5008 222° Southwest 422 486 32,000  Level Kansas City Center
07:38PM 37.8803 -91.5997 222° Southwest 420 483 32,000  Level Kansas City Center
07:39PM 37.7933 -91.6981 222° Southwest 417 480 32,000  Level Kansas City Center
07:40PM 37.7058 -91.7956 221° Southwest 416 479 32,000  Level Kansas City Center
07:41PM 37.6189 -91.8933 222° Southwest 414 476 32,000  Level Kansas City Center
07:42PM 37.5308 -91.9894 221° Southwest 414 476 32,000  Level Kansas City Center
07:43PM 37.4442 -92.0869 222° Southwest 413 475 32,000  Level Kansas City Center
07:44PM 37.3567 -92.1828 221° Southwest 414 476 32,000  Level Kansas City Center
07:45PM 37.2706 -92.2761 221° Southwest 408 470 32,000  Level Kansas City Center
07:46PM 37.1672 -92.3894 221° Southwest 409 471 32,000  Level Kansas City Center
07:47PM 37.0814 -92.4833 221° Southwest 408 470 32,000  Level Kansas City Center
07:49PM 36.9950 -92.5758 221° Southwest 407 468 32,000  Level Kansas City Center
07:50PM 36.9092 -92.6681 221° Southwest 406 467 32,000  Level Kansas City Center
07:51PM 36.8236 -92.7600 221° Southwest 405 466 32,000  Level Kansas City Center
07:52PM 36.7375 -92.8517 220° Southwest 404 465 32,000  Level Kansas City Center
07:53PM 36.6508 -92.9450 221° Southwest 407 468 32,000  Level Kansas City Center
07:54PM 36.5608 -93.0425 221° Southwest 409 471 32,000  Level Kansas City Center
07:55PM 36.4742 -93.1339 220° Southwest 409 471 32,000  Level Kansas City Center
07:56PM 36.3889 -93.2275 221° Southwest 411 473 32,000  Level Kansas City Center
07:56PM 36.3350 -93.2836 220° Southwest 412 474 32,000  Level Memphis Center
07:57PM 36.2494 -93.3731 220° Southwest 412 474 32,000  Level Memphis Center
07:58PM 36.1636 -93.4678 222° Southwest 412 474 32,000  Level Memphis Center
07:59PM 36.0758 -93.5594 220° Southwest 417 480 32,000  Level Memphis Center
08:00PM 35.9900 -93.6508 221° Southwest 412 474 32,000  Level Memphis Center
08:01PM 35.9042 -93.7397 220° Southwest 412 474 32,000  Level Memphis Center
08:02PM 35.8164 -93.8308 220° Southwest 412 474 32,000  Level Memphis Center
08:03PM 35.7303 -93.9194 220° Southwest 412 474 32,000  Level Memphis Center
08:04PM 35.6444 -94.0075 220° Southwest 412 474 32,000  Level Memphis Center
08:05PM 35.5583 -94.0956 220° Southwest 412 474 32,000  Level Memphis Center
08:06PM 35.4744 -94.1836 221° Southwest 412 474 32,000  Level Memphis Center
08:07PM 35.3842 -94.2714 218° Southwest 407 468 32,000  Level Memphis Center
08:08PM 35.2878 -94.3456 212° Southwest 413 475 32,000  Level Memphis Center
08:09PM 35.1936 -94.4200 213° Southwest 413 475 32,000  Level Memphis Center
08:11PM 35.0150 -94.5592 213° Southwest 416 479 32,000  Level Fort Worth Center
08:12PM 34.9167 -94.6333 212° Southwest 416 479 32,000  Level Fort Worth Center
08:13PM 34.8222 -94.7097 214° Southwest 421 484 32,000  Level Fort Worth Center
08:14PM 34.7239 -94.7836 212° Southwest 414 476 32,000  Level Fort Worth Center
08:15PM 34.6253 -94.8572 212° Southwest 420 483 32,000  Level Fort Worth Center
08:16PM 34.5306 -94.9256 211° Southwest 420 483 32,000  Level Fort Worth Center
08:17PM 34.4319 -95.0014 212° Southwest 426 490 32,000  Level Fort Worth Center
08:18PM 34.3311 -95.0747 211° Southwest 426 490 32,000  Level Fort Worth Center
08:19PM 34.2303 -95.1503 212° Southwest 426 490 32,000  Level Fort Worth Center
08:20PM 34.1292 -95.2256 212° Southwest 432 497 32,000  Level Fort Worth Center
08:21PM 34.0283 -95.3008 212° Southwest 427 491 32,000  Level Fort Worth Center
08:22PM 33.9253 -95.3733 210° Southwest 427 491 32,000  Level Fort Worth Center
08:23PM 33.8219 -95.4508 212° Southwest 422 486 32,000  Level Fort Worth Center
08:24PM 33.7189 -95.5256 211° Southwest 434 499 32,000  Level Fort Worth Center
08:25PM 33.6197 -95.5950 210° Southwest 434 499 32,000  Level Fort Worth Center
08:26PM 33.5061 -95.6769 211° Southwest 429 494 32,000  Level Fort Worth Center
08:27PM 33.4172 -95.7486 214° Southwest 429 494 32,000  Level Fort Worth Center
08:28PM 33.2994 -95.8303 210° Southwest 434 499 32,000  Level Fort Worth Center
08:29PM 33.2064 -95.8964 211° Southwest 434 499 32,000  Level Fort Worth Center
08:30PM 33.1028 -95.9725 212° Southwest 439 505 32,000  Level Fort Worth Center
08:31PM 32.9972 -96.0486 211° Southwest 439 505 32,000  Level Fort Worth Center
08:32PM 32.8914 -96.1219 210° Southwest 439 505 32,000  Level Fort Worth Center
08:33PM 32.7878 -96.1975 212° Southwest 439 505 32,000  Level Fort Worth Center
08:34PM 32.6717 -96.2781 210° Southwest 439 505 32,000  Level Fort Worth Center
08:35PM 32.5764 -96.3483 212° Southwest 444 511 32,000  Level Fort Worth Center
08:36PM 32.4706 -96.4236 211° Southwest 444 511 32,000 -300 Level Fort Worth Center
08:37PM 32.3644 -96.4983 211° Southwest 444 511 31,500 -720 Descending Fort Worth Center
08:38PM 32.2564 -96.5756 211° Southwest 450 518 30,600 -1,440 Descending Fort Worth Center
08:39PM 32.1483 -96.6503 210° Southwest 450 518 28,700 -1,980 Descending Fort Worth Center
08:40PM 32.0444 -96.7272 212° Southwest 450 518 26,700 -2,040 Descending Fort Worth Center
08:41PM 31.9447 -96.8014 212° Southwest 444 511 24,700 -2,040 Descending Fort Worth Center
08:42PM 31.8447 -96.8656 209° Southwest 431 496 22,700 -1,920 Descending Fort Worth Center
08:43PM 31.7269 -96.9469 210° Southwest 415 478 20,700 -1,260 Descending Houston Center
08:44PM 31.6278 -97.0161 211° Southwest 411 473 20,000 -360 Descending Houston Center
08:45PM 31.5275 -97.0833 210° Southwest 410 472 20,000  Level Houston Center
08:46PM 31.4175 -97.1272 199° South 415 478 20,000 -840 Level Houston Center
08:47PM 31.3078 -97.1703 199° South 412 474 18,400 -1,620 Descending Houston Center
08:48PM 31.2003 -97.2122 198° South 404 465 16,800 -1,500 Descending Houston Center
08:49PM 31.0794 -97.2597 199° South 392 451 15,400 -1,500 Descending Houston Center
08:50PM 30.9792 -97.2997 199° South 386 444 13,800 -1,200 Descending Houston Center
08:51PM 30.8825 -97.3364 198° South 381 438 13,000 -720 Descending Houston Center
08:52PM 30.7908 -97.3731 199° South 354 407 12,400 -960 Descending Houston Center
08:54PM 30.7214 -97.4281 214° Southwest 304 350 11,100 -1,380 Descending Houston Center
08:55PM 30.6531 -97.4825 214° Southwest 297 342 9,600 -1,500 Descending Houston Center
08:56PM 30.5867 -97.5353 214° Southwest 289 333 8,100 -1,560 Descending Houston Center
08:57PM 30.5125 -97.5969 216° Southwest 281 323 6,400 -1,620 Descending Houston Center
08:58PM 30.4528 -97.6492 217° Southwest 270 311 4,800 -1,320 Descending Houston Center
08:59PM 30.3958 -97.6900 212° Southwest 251 289 3,800 -1,020 Descending Houston Center